createdAt,value
2022-09-18T00:01:34.220Z,48.02
2022-09-18T00:04:08.271Z,48.52
2022-09-18T00:06:39.806Z,48.54
2022-09-18T00:09:14.245Z,48.50
2022-09-18T00:11:46.031Z,48.60
2022-09-18T00:14:19.103Z,48.23
2022-09-18T00:16:46.393Z,48.66
2022-09-18T00:19:17.028Z,49.01
2022-09-18T00:21:48.802Z,49.26
2022-09-18T00:24:16.767Z,49.24
2022-09-18T00:26:44.945Z,49.07
2022-09-18T00:29:14.077Z,49.19
2022-09-18T00:31:42.017Z,49.69
2022-09-18T00:34:13.034Z,49.62
2022-09-18T00:36:41.478Z,49.98
2022-09-18T00:39:09.418Z,49.26
2022-09-18T00:41:40.982Z,49.58
2022-09-18T00:44:38.187Z,49.35
2022-09-18T00:47:11.380Z,49.16
2022-09-18T00:49:59.970Z,49.37
2022-09-18T00:52:35.770Z,49.26
2022-09-18T00:55:10.317Z,48.86
2022-09-18T00:57:46.025Z,49.10
2022-09-18T01:00:14.283Z,48.82
2022-09-18T01:02:44.261Z,48.84
2022-09-18T01:05:17.099Z,48.93
2022-09-18T01:08:09.007Z,49.12
2022-09-18T01:11:01.086Z,48.77
2022-09-18T01:14:15.854Z,49.43
2022-09-18T01:17:12.729Z,50.17
2022-09-18T01:20:25.789Z,50.50
2022-09-18T01:23:30.156Z,50.37
2022-09-18T01:26:34.200Z,50.36
2022-09-18T01:29:18.761Z,50.06
2022-09-18T01:32:46.968Z,50.51
2022-09-18T01:35:40.070Z,50.38
2022-09-18T01:38:18.059Z,50.96
2022-09-18T01:40:53.505Z,50.43
2022-09-18T01:43:24.846Z,50.73
2022-09-18T01:45:56.457Z,50.51
2022-09-18T01:48:50.127Z,50.67
2022-09-18T01:51:28.348Z,51.11
2022-09-18T01:54:05.582Z,50.77
2022-09-18T01:57:01.827Z,51.24
2022-09-18T01:59:42.884Z,51.63
2022-09-18T02:02:20.947Z,51.48
2022-09-18T02:04:56.526Z,51.10
2022-09-18T02:07:51.867Z,51.36
2022-09-18T02:10:24.042Z,51.80
2022-09-18T02:12:56.217Z,51.49
2022-09-18T02:15:27.191Z,51.12
2022-09-18T02:18:04.850Z,51.38
2022-09-18T02:20:36.188Z,51.28
2022-09-18T02:23:07.565Z,51.47
2022-09-18T02:26:01.129Z,51.24
2022-09-18T02:28:30.744Z,51.39
2022-09-18T02:30:58.032Z,51.33
2022-09-18T02:33:33.801Z,51.17
2022-09-18T02:36:42.794Z,51.26
2022-09-18T02:39:30.576Z,51.75
2022-09-18T02:42:03.535Z,52.26
2022-09-18T02:44:47.987Z,52.75
2022-09-18T02:47:54.157Z,52.48
2022-09-18T02:50:59.490Z,52.43
2022-09-18T02:53:38.125Z,52.45
2022-09-18T02:56:45.496Z,52.10
2022-09-18T02:59:16.482Z,52.10
2022-09-18T03:01:46.638Z,52.33
2022-09-18T03:04:21.337Z,52.28
2022-09-18T03:06:48.607Z,52.60
2022-09-18T03:09:15.822Z,52.84
2022-09-18T03:11:43.141Z,53.26
2022-09-18T03:14:14.384Z,53.32
2022-09-18T03:16:42.133Z,53.38
2022-09-18T03:19:09.732Z,53.36
2022-09-18T03:21:37.387Z,52.90
2022-09-18T03:24:05.022Z,53.10
2022-09-18T03:26:32.821Z,53.34
2022-09-18T03:29:01.964Z,53.64
2022-09-18T03:31:29.666Z,53.56
2022-09-18T03:33:57.342Z,52.97
2022-09-18T03:36:25.082Z,53.13
2022-09-18T03:38:57.380Z,53.39
2022-09-18T03:41:24.573Z,53.30
2022-09-18T03:43:51.730Z,53.00
2022-09-18T03:46:19.562Z,52.79
2022-09-18T03:48:46.710Z,53.18
2022-09-18T03:51:14.276Z,53.12
2022-09-18T03:53:41.459Z,53.61
2022-09-18T03:56:08.565Z,53.63
2022-09-18T03:58:35.685Z,53.29
2022-09-18T04:01:02.875Z,53.51
2022-09-18T04:03:30.164Z,53.56
2022-09-18T04:05:57.349Z,53.40
2022-09-18T04:08:24.903Z,53.80
2022-09-18T04:10:52.388Z,53.66
2022-09-18T04:13:20.045Z,54.02
2022-09-18T04:15:51.088Z,53.97
2022-09-18T04:18:19.572Z,54.49
2022-09-18T04:20:50.697Z,54.25
2022-09-18T04:23:24.322Z,54.57
2022-09-18T04:25:51.598Z,54.83
2022-09-18T04:28:18.752Z,54.54
2022-09-18T04:30:47.534Z,54.75
2022-09-18T04:33:16.108Z,54.62
2022-09-18T04:35:43.370Z,54.70
2022-09-18T04:38:10.555Z,54.82
2022-09-18T04:40:37.843Z,55.17
2022-09-18T04:43:05.067Z,55.07
2022-09-18T04:45:32.300Z,54.90
2022-09-18T04:47:59.561Z,54.85
2022-09-18T04:50:26.837Z,54.46
2022-09-18T04:52:54.085Z,54.71
2022-09-18T04:55:21.220Z,55.01
2022-09-18T04:57:51.239Z,54.74
2022-09-18T05:00:21.547Z,54.61
2022-09-18T05:02:48.755Z,54.72
2022-09-18T05:05:16.043Z,54.73
2022-09-18T05:07:43.242Z,54.69
2022-09-18T05:10:10.731Z,54.96
2022-09-18T05:12:41.124Z,54.88
2022-09-18T05:15:11.481Z,55.09
2022-09-18T05:17:39.632Z,55.79
2022-09-18T05:20:09.520Z,55.50
2022-09-18T05:22:37.223Z,55.70
2022-09-18T05:25:05.571Z,55.68
2022-09-18T05:27:33.290Z,55.71
2022-09-18T05:30:00.525Z,55.12
2022-09-18T05:32:28.503Z,55.20
2022-09-18T05:34:55.997Z,54.92
2022-09-18T05:37:24.041Z,54.59
2022-09-18T05:39:51.397Z,54.44
2022-09-18T05:42:18.688Z,54.05
2022-09-18T05:44:45.811Z,54.54
2022-09-18T05:47:12.978Z,54.76
2022-09-18T05:49:40.106Z,54.89
2022-09-18T05:52:07.292Z,54.36
2022-09-18T05:54:34.604Z,53.68
2022-09-18T05:57:01.835Z,53.00
2022-09-18T05:59:29.019Z,51.78
2022-09-18T06:01:56.225Z,50.76
2022-09-18T06:04:23.574Z,49.26
2022-09-18T06:06:50.883Z,48.45
2022-09-18T06:09:17.992Z,48.67
2022-09-18T06:11:45.180Z,48.31
2022-09-18T06:14:12.449Z,48.07
2022-09-18T06:16:42.363Z,47.64
2022-09-18T06:19:10.100Z,47.62
2022-09-18T06:21:37.446Z,47.85
2022-09-18T06:24:04.761Z,47.56
2022-09-18T06:26:32.044Z,47.27
2022-09-18T06:28:59.197Z,47.77
2022-09-18T06:31:26.517Z,47.64
2022-09-18T06:33:53.896Z,47.35
2022-09-18T06:36:21.624Z,47.20
2022-09-18T06:38:51.988Z,47.17
2022-09-18T06:41:19.365Z,47.03
2022-09-18T06:43:47.311Z,46.96
2022-09-18T06:46:14.735Z,47.23
2022-09-18T06:48:42.096Z,46.85
2022-09-18T06:51:09.890Z,46.46
2022-09-18T06:53:37.276Z,46.58
2022-09-18T06:56:04.858Z,46.27
2022-09-18T06:58:32.229Z,46.31
2022-09-18T07:01:00.692Z,45.95
2022-09-18T07:03:28.227Z,46.30
2022-09-18T07:05:55.516Z,46.09
2022-09-18T07:08:22.744Z,45.91
2022-09-18T07:10:49.959Z,46.20
2022-09-18T07:13:17.167Z,46.47
2022-09-18T07:15:47.175Z,45.88
2022-09-18T07:18:15.069Z,45.09
2022-09-18T07:20:42.844Z,45.22
2022-09-18T07:23:10.282Z,45.44
2022-09-18T07:25:38.159Z,45.64
2022-09-18T07:28:08.420Z,45.49
2022-09-18T07:30:37.889Z,45.18
2022-09-18T07:33:09.014Z,45.18
2022-09-18T07:35:42.615Z,45.54
2022-09-18T07:38:13.685Z,45.49
2022-09-18T07:40:41.313Z,45.47
2022-09-18T07:43:11.236Z,45.51
2022-09-18T07:45:38.850Z,45.38
2022-09-18T07:48:07.711Z,45.23
2022-09-18T07:50:35.043Z,45.36
2022-09-18T07:53:04.774Z,45.43
2022-09-18T07:55:36.124Z,45.61
2022-09-18T07:58:06.922Z,45.11
2022-09-18T08:00:37.919Z,44.98
2022-09-18T08:03:14.084Z,44.51
2022-09-18T08:05:42.409Z,44.00
2022-09-18T08:08:14.725Z,44.32
2022-09-18T08:10:44.596Z,44.61
2022-09-18T08:13:12.952Z,44.61
2022-09-18T08:15:42.738Z,44.18
2022-09-18T08:18:11.065Z,43.73
2022-09-18T08:20:38.786Z,43.55
2022-09-18T08:23:08.283Z,44.05
2022-09-18T08:25:36.271Z,43.69
2022-09-18T08:28:06.836Z,44.09
2022-09-18T08:30:35.254Z,43.46
2022-09-18T08:33:06.507Z,43.88
2022-09-18T08:35:34.792Z,43.43
2022-09-18T08:38:02.319Z,43.45
2022-09-18T08:40:46.391Z,43.43
2022-09-18T08:43:47.524Z,43.22
2022-09-18T08:46:34.698Z,42.97
2022-09-18T08:49:39.144Z,42.80
2022-09-18T08:52:15.649Z,42.93
2022-09-18T08:55:05.224Z,42.77
2022-09-18T08:58:00.496Z,42.74
2022-09-18T09:00:56.757Z,42.58
2022-09-18T09:04:02.170Z,41.74
2022-09-18T09:06:54.538Z,42.19
2022-09-18T09:09:45.043Z,41.36
2022-09-18T09:13:15.459Z,41.41
2022-09-18T09:16:31.623Z,41.64
2022-09-18T09:19:37.664Z,40.78
2022-09-18T09:22:46.385Z,40.86
2022-09-18T09:25:45.789Z,39.82
2022-09-18T09:28:27.818Z,39.45
2022-09-18T09:31:01.960Z,38.35
2022-09-18T09:33:53.125Z,37.51
2022-09-18T09:36:27.057Z,38.55
2022-09-18T09:39:16.229Z,38.48
2022-09-18T09:42:02.805Z,39.16
2022-09-18T09:44:51.191Z,39.12
2022-09-18T09:47:50.893Z,38.72
2022-09-18T09:50:35.913Z,38.36
2022-09-18T09:53:09.346Z,37.37
2022-09-18T09:56:12.198Z,37.01
2022-09-18T09:59:15.446Z,37.18
2022-09-18T10:02:15.372Z,37.26
2022-09-18T10:04:57.788Z,37.42
2022-09-18T10:07:37.399Z,36.63
2022-09-18T10:10:38.639Z,36.40
2022-09-18T10:13:21.684Z,36.90
2022-09-18T10:15:55.587Z,36.83
2022-09-18T10:18:44.300Z,36.85
2022-09-18T10:21:16.640Z,36.73
2022-09-18T10:24:27.584Z,35.73
2022-09-18T10:27:11.652Z,35.91
2022-09-18T10:29:39.717Z,36.14
2022-09-18T10:32:08.097Z,36.31
2022-09-18T10:34:46.735Z,36.04
2022-09-18T10:37:17.373Z,35.10
2022-09-18T10:40:00.450Z,33.15
2022-09-18T10:42:36.235Z,33.14
2022-09-18T10:45:30.491Z,30.34
2022-09-18T10:48:18.055Z,30.11
2022-09-18T10:51:00.966Z,30.40
2022-09-18T10:53:37.975Z,31.03
2022-09-18T10:56:17.043Z,30.13
2022-09-18T10:58:44.204Z,30.74
2022-09-18T11:01:13.842Z,30.98
2022-09-18T11:04:04.307Z,32.79
2022-09-18T11:06:36.105Z,31.47
2022-09-18T11:09:10.572Z,31.17
2022-09-18T11:11:44.841Z,30.05
2022-09-18T11:14:27.351Z,28.15
2022-09-18T11:17:02.117Z,27.57
2022-09-18T11:19:30.486Z,27.50
2022-09-18T11:22:03.585Z,26.45
2022-09-18T11:24:34.589Z,26.92
2022-09-18T11:27:19.545Z,25.78
2022-09-18T11:29:47.320Z,25.83
2022-09-18T11:32:30.726Z,26.33
2022-09-18T11:35:06.804Z,26.38
2022-09-18T11:37:43.442Z,26.02
2022-09-18T11:40:26.676Z,26.21
2022-09-18T11:42:56.002Z,27.39
2022-09-18T11:45:43.959Z,27.17
2022-09-18T11:48:38.387Z,26.83
2022-09-18T11:51:18.210Z,26.38
2022-09-18T11:53:51.973Z,26.61
2022-09-18T11:56:46.126Z,26.55
2022-09-18T11:59:35.100Z,25.74
2022-09-18T12:02:29.452Z,26.61
2022-09-18T12:05:20.684Z,27.35
2022-09-18T12:08:10.797Z,27.32
2022-09-18T12:11:15.415Z,27.15
2022-09-18T12:13:58.669Z,26.15
2022-09-18T12:17:08.912Z,26.90
2022-09-18T12:19:50.686Z,27.22
2022-09-18T12:22:46.593Z,27.05
2022-09-18T12:25:16.420Z,27.56
2022-09-18T12:27:55.554Z,27.48
2022-09-18T12:30:55.490Z,27.26
2022-09-18T12:34:04.150Z,27.64
2022-09-18T12:37:01.128Z,27.96
2022-09-18T12:40:02.088Z,28.98
2022-09-18T12:43:26.853Z,28.81
2022-09-18T12:46:26.993Z,29.25
2022-09-18T12:49:28.485Z,29.66
2022-09-18T12:52:25.815Z,30.43
2022-09-18T12:55:24.694Z,30.84
2022-09-18T12:58:24.342Z,29.15
2022-09-18T13:00:53.442Z,30.49
2022-09-18T13:03:36.346Z,30.54
2022-09-18T13:06:14.373Z,30.05
2022-09-18T13:09:06.803Z,30.75
2022-09-18T13:11:43.796Z,30.90
2022-09-18T13:14:32.517Z,30.97
2022-09-18T13:17:34.015Z,30.13
2022-09-18T13:20:21.053Z,30.25
2022-09-18T13:22:53.917Z,30.88
2022-09-18T13:25:40.787Z,31.38
2022-09-18T13:28:17.191Z,30.57
2022-09-18T13:30:49.228Z,29.15
2022-09-18T13:33:26.566Z,28.56
2022-09-18T13:35:57.575Z,28.63
2022-09-18T13:38:28.694Z,28.84
2022-09-18T13:41:14.110Z,28.80
2022-09-18T13:43:57.265Z,28.83
2022-09-18T13:46:41.267Z,29.49
2022-09-18T13:49:27.110Z,29.99
2022-09-18T13:51:54.804Z,30.34
2022-09-18T13:54:28.815Z,29.69
2022-09-18T13:57:04.940Z,29.34
2022-09-18T13:59:56.180Z,29.86
2022-09-18T14:02:42.488Z,30.13
2022-09-18T14:05:34.593Z,29.41
2022-09-18T14:08:21.298Z,29.28
2022-09-18T14:11:05.403Z,29.36
2022-09-18T14:13:47.067Z,29.63
2022-09-18T14:16:20.262Z,29.11
2022-09-18T14:18:47.525Z,29.54
2022-09-18T14:21:17.723Z,29.44
2022-09-18T14:23:47.973Z,29.82
2022-09-18T14:26:30.336Z,30.38
2022-09-18T14:29:09.656Z,30.59
2022-09-18T14:32:01.403Z,30.19
2022-09-18T14:34:39.840Z,30.94
2022-09-18T14:37:29.403Z,30.63
2022-09-18T14:39:58.453Z,31.51
2022-09-18T14:42:39.607Z,32.19
2022-09-18T14:45:31.844Z,33.08
2022-09-18T14:48:20.276Z,33.87
2022-09-18T14:51:22.485Z,34.45
2022-09-18T14:53:54.565Z,33.99
2022-09-18T14:56:30.944Z,33.87
2022-09-18T14:59:04.678Z,30.87
2022-09-18T15:01:40.510Z,29.37
2022-09-18T15:04:21.020Z,29.31
2022-09-18T15:06:54.680Z,29.84
2022-09-18T15:09:32.503Z,28.97
2022-09-18T15:12:02.879Z,28.45
2022-09-18T15:14:41.801Z,28.16
2022-09-18T15:17:25.957Z,27.45
2022-09-18T15:20:17.211Z,26.81
2022-09-18T15:22:44.511Z,26.68
2022-09-18T15:25:30.726Z,26.66
2022-09-18T15:28:04.366Z,27.12
2022-09-18T15:30:40.225Z,27.70
2022-09-18T15:33:17.313Z,27.37
2022-09-18T15:35:46.134Z,27.50
2022-09-18T15:38:25.291Z,27.33
2022-09-18T15:40:53.566Z,27.42
2022-09-18T15:43:29.785Z,27.49
2022-09-18T15:46:07.224Z,27.97
2022-09-18T15:48:46.678Z,28.57
2022-09-18T15:51:17.090Z,28.85
2022-09-18T15:54:12.541Z,30.20
2022-09-18T15:56:57.856Z,30.62
2022-09-18T15:59:35.735Z,31.32
2022-09-18T16:02:38.033Z,33.77
2022-09-18T16:05:14.497Z,34.69
2022-09-18T16:08:01.004Z,35.09
2022-09-18T16:10:51.223Z,35.24
2022-09-18T16:13:18.309Z,35.87
2022-09-18T16:15:46.445Z,37.39
2022-09-18T16:18:16.720Z,37.75
2022-09-18T16:21:03.299Z,38.17
2022-09-18T16:23:51.895Z,39.09
2022-09-18T16:26:45.554Z,39.90
2022-09-18T16:29:23.346Z,40.12
2022-09-18T16:31:50.505Z,39.74
2022-09-18T16:34:22.147Z,39.98
2022-09-18T16:36:50.759Z,40.56
2022-09-18T16:39:21.742Z,40.33
2022-09-18T16:41:49.402Z,39.87
2022-09-18T16:44:18.317Z,40.20
2022-09-18T16:46:53.899Z,41.63
2022-09-18T16:49:27.986Z,41.83
2022-09-18T16:51:56.660Z,42.09
2022-09-18T16:54:25.475Z,42.56
2022-09-18T16:57:18.027Z,43.18
2022-09-18T16:59:45.672Z,42.96
2022-09-18T17:02:17.998Z,42.75
2022-09-18T17:04:45.144Z,42.61
2022-09-18T17:07:12.548Z,42.48
2022-09-18T17:09:39.781Z,43.44
2022-09-18T17:12:07.203Z,43.42
2022-09-18T17:14:34.504Z,43.95
2022-09-18T17:17:02.280Z,44.81
2022-09-18T17:19:31.822Z,45.31
2022-09-18T17:21:59.004Z,44.99
2022-09-18T17:24:26.336Z,45.03
2022-09-18T17:26:53.739Z,45.27
2022-09-18T17:29:21.358Z,45.05
2022-09-18T17:31:48.723Z,45.09
2022-09-18T17:34:17.368Z,45.44
2022-09-18T17:36:45.499Z,45.90
2022-09-18T17:39:13.368Z,45.80
2022-09-18T17:41:40.605Z,45.70
2022-09-18T17:44:07.769Z,46.05
2022-09-18T17:46:35.383Z,46.62
2022-09-18T17:49:05.932Z,46.38
2022-09-18T17:51:33.528Z,46.11
2022-09-18T17:54:05.060Z,45.65
2022-09-18T17:56:33.891Z,45.80
2022-09-18T17:59:08.529Z,45.80
2022-09-18T18:01:41.876Z,46.08
2022-09-18T18:04:09.743Z,46.30
2022-09-18T18:06:37.026Z,46.24
2022-09-18T18:09:06.945Z,46.48
2022-09-18T18:11:34.203Z,46.86
2022-09-18T18:14:01.798Z,47.12
2022-09-18T18:16:31.605Z,47.34
2022-09-18T18:19:04.858Z,46.60
2022-09-18T18:21:35.679Z,46.62
2022-09-18T18:24:07.078Z,46.75
2022-09-18T18:26:35.101Z,46.94
2022-09-18T18:29:02.332Z,46.91
2022-09-18T18:31:29.724Z,46.51
2022-09-18T18:33:57.284Z,46.90
2022-09-18T18:36:28.811Z,47.50
2022-09-18T18:38:59.254Z,47.91
2022-09-18T18:41:29.667Z,47.69
2022-09-18T18:44:00.925Z,47.85
2022-09-18T18:46:30.681Z,47.93
2022-09-18T18:49:01.310Z,47.91
2022-09-18T18:51:32.652Z,47.71
2022-09-18T18:54:00.746Z,47.82
2022-09-18T18:56:29.185Z,48.03
2022-09-18T18:59:00.084Z,48.09
2022-09-18T19:01:29.363Z,48.17
2022-09-18T19:04:06.775Z,48.04
2022-09-18T19:06:39.042Z,48.20
2022-09-18T19:09:19.848Z,48.21
2022-09-18T19:11:50.400Z,48.19
2022-09-18T19:14:24.594Z,48.22
2022-09-18T19:16:53.981Z,48.01
2022-09-18T19:19:26.245Z,48.45
2022-09-18T19:21:54.643Z,48.39
2022-09-18T19:24:22.449Z,48.44
2022-09-18T19:26:50.161Z,48.18
2022-09-18T19:29:19.845Z,47.65
2022-09-18T19:31:49.092Z,47.74
2022-09-18T19:34:19.823Z,48.01
2022-09-18T19:36:48.265Z,48.05
2022-09-18T19:39:17.322Z,48.19
2022-09-18T19:42:04.378Z,47.97
2022-09-18T19:45:05.233Z,48.29
2022-09-18T19:47:43.251Z,48.04
2022-09-18T19:50:26.524Z,48.33
2022-09-18T19:52:54.651Z,48.29
2022-09-18T19:55:22.702Z,48.28
2022-09-18T19:57:53.671Z,48.20
2022-09-18T20:00:21.264Z,48.38
2022-09-18T20:02:48.667Z,48.24
2022-09-18T20:05:16.205Z,48.45
2022-09-18T20:07:44.009Z,48.98
2022-09-18T20:10:15.181Z,48.60
2022-09-18T20:12:42.749Z,48.75
2022-09-18T20:15:11.930Z,48.90
2022-09-18T20:17:39.994Z,48.89
2022-09-18T20:20:08.990Z,49.01
2022-09-18T20:22:37.506Z,49.52
2022-09-18T20:25:05.447Z,50.01
2022-09-18T20:27:38.502Z,49.41
2022-09-18T20:30:09.470Z,49.15
2022-09-18T20:32:37.406Z,49.69
2022-09-18T20:35:05.762Z,49.96
2022-09-18T20:37:33.039Z,50.28
2022-09-18T20:40:01.070Z,50.48
2022-09-18T20:42:33.536Z,50.19
2022-09-18T20:45:02.242Z,50.48
2022-09-18T20:47:38.519Z,50.36
2022-09-18T20:50:16.772Z,50.39
2022-09-18T20:52:44.398Z,50.31
2022-09-18T20:55:16.417Z,50.34
2022-09-18T20:57:45.267Z,50.50
2022-09-18T21:00:14.175Z,51.08
2022-09-18T21:02:41.779Z,51.28
2022-09-18T21:05:12.024Z,51.10
2022-09-18T21:07:40.466Z,51.09
2022-09-18T21:10:08.483Z,51.37
2022-09-18T21:12:35.704Z,51.68
2022-09-18T21:15:03.914Z,51.58
2022-09-18T21:17:31.196Z,51.83
2022-09-18T21:19:58.364Z,51.89
2022-09-18T21:22:25.656Z,51.83
2022-09-18T21:24:52.824Z,51.53
2022-09-18T21:27:20.391Z,51.15
2022-09-18T21:29:47.607Z,50.81
2022-09-18T21:32:14.763Z,51.01
2022-09-18T21:34:41.985Z,51.16
2022-09-18T21:37:11.438Z,51.14
2022-09-18T21:39:39.969Z,50.99
2022-09-18T21:42:08.490Z,51.25
2022-09-18T21:44:36.612Z,51.05
2022-09-18T21:47:08.817Z,51.17
2022-09-18T21:49:36.227Z,51.50
2022-09-18T21:52:07.946Z,51.58
2022-09-18T21:54:35.800Z,51.54
2022-09-18T21:57:04.476Z,51.73
2022-09-18T21:59:32.653Z,51.95
2022-09-18T22:02:00.558Z,51.89
2022-09-18T22:04:31.733Z,52.17
2022-09-18T22:07:01.286Z,52.02
2022-09-18T22:09:34.774Z,52.43
2022-09-18T22:12:02.388Z,52.30
2022-09-18T22:14:32.982Z,52.38
2022-09-18T22:17:04.206Z,52.20
2022-09-18T22:19:32.331Z,52.05
2022-09-18T22:22:01.051Z,52.11
2022-09-18T22:24:29.136Z,51.92
2022-09-18T22:27:01.022Z,51.88
2022-09-18T22:29:32.583Z,51.79
2022-09-18T22:32:01.248Z,51.86
2022-09-18T22:34:31.204Z,51.90
2022-09-18T22:37:00.256Z,52.31
2022-09-18T22:39:28.356Z,52.25
2022-09-18T22:41:55.931Z,52.28
2022-09-18T22:44:23.778Z,52.59
2022-09-18T22:46:52.927Z,52.48
2022-09-18T22:49:22.636Z,52.53
2022-09-18T22:51:50.989Z,52.81
2022-09-18T22:54:22.963Z,52.62
2022-09-18T22:56:50.574Z,52.83
2022-09-18T22:59:20.876Z,52.71
2022-09-18T23:02:03.898Z,52.92
2022-09-18T23:04:32.907Z,53.23
2022-09-18T23:07:01.231Z,53.70
2022-09-18T23:09:30.950Z,53.79
2022-09-18T23:11:58.939Z,54.11
2022-09-18T23:14:29.480Z,54.11
2022-09-18T23:16:58.854Z,53.77
2022-09-18T23:19:30.898Z,54.04
2022-09-18T23:21:59.126Z,53.88
2022-09-18T23:24:27.530Z,54.04
2022-09-18T23:26:58.148Z,54.28
2022-09-18T23:29:27.936Z,53.76
2022-09-18T23:31:56.305Z,53.93
2022-09-18T23:34:30.118Z,54.12
2022-09-18T23:36:58.209Z,54.50
2022-09-18T23:39:30.261Z,54.82
2022-09-18T23:41:59.479Z,54.53
2022-09-18T23:44:28.032Z,54.55
2022-09-18T23:46:55.887Z,54.61
2022-09-18T23:49:23.150Z,54.49
2022-09-18T23:51:53.443Z,54.58
2022-09-18T23:54:25.125Z,54.75
2022-09-18T23:56:53.259Z,55.05
2022-09-18T23:59:23.313Z,55.27
